Time;durP1;ratioP1;P1;durP2;ratioP2;P2;SDS_P1;SDS_P2;PMS_P1;PMS_P2;Temp;Humidity;BMP_temperature;BMP_pressure;BME280_temperature;BME280_humidity;BME280_pressure;Samples;Min_cycle;Max_cycle;Signal;HPM_P1;HPM_P2
2024/01/16 00:02:02;;;;;;;6.10;2.15;;;;;;;;;;5051308;28;20029;-79
2024/01/16 00:04:29;;;;;;;5.00;2.17;;;;;;;;;;5057341;28;20103;-79
2024/01/16 00:06:55;;;;;;;7.72;2.20;;;;;;;;;;5051915;28;20027;-79
2024/01/16 00:09:21;;;;;;;5.80;2.20;;;;;;;;;;5060932;28;20099;-79
2024/01/16 00:11:46;;;;;;;5.03;2.30;;;;;;;;;;5051458;28;20013;-79
2024/01/16 00:14:12;;;;;;;6.57;2.47;;;;;;;;;;5058770;28;20727;-79
2024/01/16 00:16:45;;;;;;;7.82;2.97;;;;;;;;;;5053935;28;20455;-79
2024/01/16 00:19:12;;;;;;;6.30;2.47;;;;;;;;;;5036312;28;20025;-79
2024/01/16 00:21:40;;;;;;;5.97;2.33;;;;;;;;;;5035442;28;20024;-79
2024/01/16 00:24:06;;;;;;;6.15;2.85;;;;;;;;;;5057119;28;20032;-79
2024/01/16 00:26:34;;;;;;;4.88;2.63;;;;;;;;;;5054001;28;20035;-79
2024/01/16 00:29:01;;;;;;;5.40;2.60;;;;;;;;;;5056134;28;20024;-79
2024/01/16 00:31:26;;;;;;;7.00;2.80;;;;;;;;;;5051889;28;20025;-79
2024/01/16 00:33:51;;;;;;;5.80;2.70;;;;;;;;;;5049036;28;20035;-79
2024/01/16 00:36:17;;;;;;;5.63;2.33;;;;;;;;;;5051973;28;20046;-79
2024/01/16 00:38:42;;;;;;;6.43;2.33;;;;;;;;;;5054884;28;20024;-80
2024/01/16 00:41:08;;;;;;;8.98;2.80;;;;;;;;;;5057012;28;20033;-79
2024/01/16 00:43:35;;;;;;;5.43;2.20;;;;;;;;;;5050561;28;20561;-79
2024/01/16 00:46:01;;;;;;;7.47;2.78;;;;;;;;;;5056759;28;20501;-79
2024/01/16 00:48:28;;;;;;;6.78;2.55;;;;;;;;;;5048510;28;20025;-81
2024/01/16 00:50:54;;;;;;;5.75;2.30;;;;;;;;;;5055627;28;20024;-81
2024/01/16 00:53:19;;;;;;;5.00;2.47;;;;;;;;;;5049097;28;20016;-81
2024/01/16 00:55:45;;;;;;;5.85;2.20;;;;;;;;;;5050568;28;20109;-81
2024/01/16 00:58:14;;;;;;;5.47;2.78;;;;;;;;;;5052952;28;20107;-81
2024/01/16 01:00:41;;;;;;;7.63;3.33;;;;;;;;;;5048145;28;20021;-81
2024/01/16 01:03:08;;;;;;;6.85;3.60;;;;;;;;;;5053155;28;20082;-81
2024/01/16 01:05:35;;;;;;;8.75;3.80;;;;;;;;;;5051598;28;20017;-81
2024/01/16 01:08:00;;;;;;;8.55;4.22;;;;;;;;;;5049162;28;20040;-81
2024/01/16 01:10:27;;;;;;;9.40;4.32;;;;;;;;;;5052891;28;20024;-81
2024/01/16 01:12:55;;;;;;;8.32;3.88;;;;;;;;;;5052556;28;20040;-81
2024/01/16 01:15:21;;;;;;;7.38;4.45;;;;;;;;;;5055941;28;20031;-81
2024/01/16 01:17:49;;;;;;;8.23;3.95;;;;;;;;;;5049805;28;20385;-81
2024/01/16 01:20:16;;;;;;;7.50;3.97;;;;;;;;;;5050036;28;20120;-81
2024/01/16 01:22:44;;;;;;;9.50;3.80;;;;;;;;;;5055826;28;20531;-81
2024/01/16 01:25:12;;;;;;;6.35;4.25;;;;;;;;;;5051042;28;20033;-81
2024/01/16 01:27:39;;;;;;;8.25;3.92;;;;;;;;;;5052940;28;20040;-81
2024/01/16 01:30:06;;;;;;;6.45;3.60;;;;;;;;;;5048481;28;20036;-81
2024/01/16 01:32:33;;;;;;;8.00;3.55;;;;;;;;;;5050957;28;20123;-81
2024/01/16 01:34:59;;;;;;;7.13;3.40;;;;;;;;;;5049189;28;20090;-81
2024/01/16 01:37:24;;;;;;;8.07;3.78;;;;;;;;;;5048269;28;20036;-81
2024/01/16 01:39:54;;;;;;;6.60;3.40;;;;;;;;;;5049942;28;20029;-81
2024/01/16 01:42:19;;;;;;;7.10;3.33;;;;;;;;;;5053734;28;20017;-81
2024/01/16 01:44:45;;;;;;;8.98;4.10;;;;;;;;;;5048332;28;20394;-81
2024/01/16 01:47:10;;;;;;;7.13;4.00;;;;;;;;;;5051142;28;20060;-81
2024/01/16 01:49:36;;;;;;;8.43;3.30;;;;;;;;;;5051935;28;20027;-81
2024/01/16 01:52:04;;;;;;;5.57;2.90;;;;;;;;;;5050030;28;20116;-81
2024/01/16 01:54:35;;;;;;;8.30;3.10;;;;;;;;;;5053328;28;20475;-81
2024/01/16 01:57:04;;;;;;;6.57;3.13;;;;;;;;;;5047848;28;20155;-81
2024/01/16 01:59:31;;;;;;;6.22;2.50;;;;;;;;;;5050594;28;20077;-82
2024/01/16 02:01:57;;;;;;;6.35;2.83;;;;;;;;;;5066357;22;20652;-84
2024/01/16 02:04:23;;;;;;;6.07;2.47;;;;;;;;;;5056591;28;20126;-84
2024/01/16 02:06:48;;;;;;;8.05;2.63;;;;;;;;;;5053350;28;20024;-84
2024/01/16 02:09:14;;;;;;;6.95;2.42;;;;;;;;;;5068472;28;20016;-84
2024/01/16 02:11:41;;;;;;;4.55;2.03;;;;;;;;;;5056959;28;20062;-83
2024/01/16 02:14:06;;;;;;;7.18;2.50;;;;;;;;;;5055766;28;20028;-84
2024/01/16 02:16:39;;;;;;;5.57;2.17;;;;;;;;;;5068112;28;20059;-84
2024/01/16 02:19:06;;;;;;;6.60;2.08;;;;;;;;;;5073084;28;20035;-83
2024/01/16 02:21:38;;;;;;;5.07;1.85;;;;;;;;;;5055392;28;20429;-84
2024/01/16 02:24:05;;;;;;;8.02;2.45;;;;;;;;;;5053982;28;20028;-83
2024/01/16 02:26:31;;;;;;;3.90;1.90;;;;;;;;;;5055764;28;20029;-83
2024/01/16 02:28:57;;;;;;;7.82;2.30;;;;;;;;;;5055886;28;20450;-83
2024/01/16 02:31:22;;;;;;;6.55;2.40;;;;;;;;;;5053012;28;20020;-83
2024/01/16 02:33:48;;;;;;;6.57;2.30;;;;;;;;;;5065139;28;20016;-83
2024/01/16 02:41:18;;;;;;;6.78;2.40;;;;;;;;;;5031626;28;20411;-84
2024/01/16 02:43:44;;;;;;;4.55;1.75;;;;;;;;;;5033965;28;20029;-83
2024/01/16 02:46:10;;;;;;;5.90;2.17;;;;;;;;;;5029456;28;20022;-84
2024/01/16 02:48:36;;;;;;;4.05;1.95;;;;;;;;;;5029640;28;20449;-83
2024/01/16 02:51:03;;;;;;;4.53;2.28;;;;;;;;;;5028566;28;20040;-83
2024/01/16 02:53:29;;;;;;;3.95;1.80;;;;;;;;;;5027453;28;20083;-83
2024/01/16 02:55:54;;;;;;;7.05;2.20;;;;;;;;;;5029770;28;20033;-84
2024/01/16 02:58:21;;;;;;;5.35;1.70;;;;;;;;;;5030505;28;20029;-84
2024/01/16 03:00:46;;;;;;;5.13;1.95;;;;;;;;;;5027336;28;20029;-83
2024/01/16 03:03:12;;;;;;;4.45;1.63;;;;;;;;;;5030403;28;20030;-84
2024/01/16 03:05:37;;;;;;;2.65;1.45;;;;;;;;;;5031209;28;20098;-84
2024/01/16 03:08:03;;;;;;;6.28;1.65;;;;;;;;;;5030300;28;20037;-83
2024/01/16 03:10:29;;;;;;;2.95;1.50;;;;;;;;;;5034809;28;20018;-83
2024/01/16 03:12:54;;;;;;;4.97;1.60;;;;;;;;;;5028773;28;20033;-83
2024/01/16 03:15:20;;;;;;;4.45;1.73;;;;;;;;;;5032389;28;20036;-84
2024/01/16 03:17:45;;;;;;;6.55;1.80;;;;;;;;;;5014423;28;20056;-83
2024/01/16 03:20:11;;;;;;;5.55;1.67;;;;;;;;;;5042112;28;20037;-84
2024/01/16 03:22:37;;;;;;;5.40;1.85;;;;;;;;;;5039549;28;20020;-84
2024/01/16 03:25:02;;;;;;;3.67;1.60;;;;;;;;;;5032955;28;20033;-83
2024/01/16 03:27:28;;;;;;;5.63;1.63;;;;;;;;;;5010219;28;20075;-84
2024/01/16 03:29:53;;;;;;;4.93;1.80;;;;;;;;;;5028917;28;20108;-84
2024/01/16 03:32:19;;;;;;;4.75;1.40;;;;;;;;;;5018281;28;20372;-84
2024/01/16 03:34:44;;;;;;;6.63;1.80;;;;;;;;;;5032031;28;20067;-84
2024/01/16 03:37:10;;;;;;;5.28;1.50;;;;;;;;;;5032418;28;20029;-84
2024/01/16 03:39:35;;;;;;;4.47;1.15;;;;;;;;;;5039239;28;20183;-83
2024/01/16 03:42:01;;;;;;;1.80;0.90;;;;;;;;;;5035130;28;20065;-84
2024/01/16 03:44:26;;;;;;;3.95;1.10;;;;;;;;;;5033861;28;20022;-83
2024/01/16 03:46:52;;;;;;;2.03;1.02;;;;;;;;;;5013726;28;20034;-84
2024/01/16 03:49:17;;;;;;;3.08;1.15;;;;;;;;;;5036204;28;20033;-84
2024/01/16 03:51:46;;;;;;;2.80;1.20;;;;;;;;;;5031822;28;20025;-84
2024/01/16 03:54:12;;;;;;;1.60;1.00;;;;;;;;;;5032965;28;20033;-83
2024/01/16 03:56:38;;;;;;;1.95;1.10;;;;;;;;;;5035011;28;20036;-84
2024/01/16 03:59:04;;;;;;;5.15;1.25;;;;;;;;;;5015150;28;20045;-84
2024/01/16 04:01:31;;;;;;;3.92;1.40;;;;;;;;;;5029857;28;20029;-83
2024/01/16 04:03:57;;;;;;;3.30;1.10;;;;;;;;;;5029841;28;20514;-84
2024/01/16 04:06:23;;;;;;;4.65;1.38;;;;;;;;;;5032184;28;20520;-84
2024/01/16 04:08:48;;;;;;;3.40;1.23;;;;;;;;;;5034066;28;20029;-84
2024/01/16 04:11:14;;;;;;;2.90;1.25;;;;;;;;;;5017778;28;20037;-83
2024/01/16 04:13:40;;;;;;;4.80;1.60;;;;;;;;;;5015217;28;20031;-84
2024/01/16 04:16:06;;;;;;;3.22;1.20;;;;;;;;;;5030915;28;20021;-83
2024/01/16 04:18:40;;;;;;;2.70;1.00;;;;;;;;;;5021031;28;20067;-83
2024/01/16 04:21:06;;;;;;;1.98;0.90;;;;;;;;;;5015393;28;20037;-84
2024/01/16 04:23:33;;;;;;;3.15;1.25;;;;;;;;;;5036960;28;20107;-83
2024/01/16 04:25:59;;;;;;;3.50;1.20;;;;;;;;;;5016954;28;20030;-83
2024/01/16 04:28:24;;;;;;;5.82;1.52;;;;;;;;;;5026458;28;20033;-83
2024/01/16 04:30:50;;;;;;;4.07;1.17;;;;;;;;;;5025307;28;20601;-83
2024/01/16 04:33:16;;;;;;;3.55;1.00;;;;;;;;;;5031666;28;20112;-83
2024/01/16 04:35:41;;;;;;;4.45;1.23;;;;;;;;;;5028185;28;20048;-83
2024/01/16 04:38:07;;;;;;;5.05;1.10;;;;;;;;;;5029172;28;20162;-82
2024/01/16 04:40:33;;;;;;;3.15;1.02;;;;;;;;;;5015898;28;20486;-83
2024/01/16 04:42:59;;;;;;;5.45;1.40;;;;;;;;;;5011842;28;20474;-83
2024/01/16 04:45:24;;;;;;;2.95;1.23;;;;;;;;;;5033935;28;20083;-82
2024/01/16 04:47:49;;;;;;;3.92;1.38;;;;;;;;;;5030879;28;20033;-82
2024/01/16 04:50:15;;;;;;;2.83;1.30;;;;;;;;;;5038968;28;20073;-83
2024/01/16 04:52:41;;;;;;;5.45;1.60;;;;;;;;;;5034195;28;20043;-83
2024/01/16 04:55:07;;;;;;;4.40;1.63;;;;;;;;;;5029342;28;20025;-82
2024/01/16 04:57:35;;;;;;;4.88;1.83;;;;;;;;;;5035683;28;20075;-78
2024/01/16 05:00:01;;;;;;;4.50;1.73;;;;;;;;;;5027831;28;20061;-83
2024/01/16 05:02:26;;;;;;;4.57;1.83;;;;;;;;;;5030281;28;20068;-83
2024/01/16 05:04:52;;;;;;;4.07;2.20;;;;;;;;;;5014882;28;20029;-83
2024/01/16 05:07:20;;;;;;;6.85;2.65;;;;;;;;;;5030947;28;20038;-82
2024/01/16 05:09:46;;;;;;;6.82;2.42;;;;;;;;;;5026827;28;20037;-82
2024/01/16 05:12:11;;;;;;;4.60;2.38;;;;;;;;;;5032641;28;20398;-82
2024/01/16 05:14:37;;;;;;;4.88;2.35;;;;;;;;;;5015632;28;20033;-82
2024/01/16 05:17:02;;;;;;;7.47;2.92;;;;;;;;;;5017690;28;20029;-82
2024/01/16 05:19:28;;;;;;;6.40;2.83;;;;;;;;;;5030119;28;20127;-82
2024/01/16 05:21:54;;;;;;;7.70;2.50;;;;;;;;;;5027780;28;20021;-82
2024/01/16 05:24:19;;;;;;;7.00;2.72;;;;;;;;;;5035860;28;20100;-82
2024/01/16 05:26:44;;;;;;;7.25;3.17;;;;;;;;;;5029079;28;20449;-83
2024/01/16 05:29:11;;;;;;;6.22;2.80;;;;;;;;;;5010188;28;20029;-83
2024/01/16 05:31:41;;;;;;;6.03;2.92;;;;;;;;;;5033112;28;20021;-82
2024/01/16 05:34:06;;;;;;;12.18;3.25;;;;;;;;;;5029187;28;20033;-83
2024/01/16 05:36:32;;;;;;;7.10;3.10;;;;;;;;;;5027953;28;20049;-83
2024/01/16 05:38:58;;;;;;;9.95;3.40;;;;;;;;;;5008587;28;20029;-83
2024/01/16 05:41:25;;;;;;;8.60;3.00;;;;;;;;;;5019400;28;20060;-84
2024/01/16 05:43:50;;;;;;;7.85;2.95;;;;;;;;;;5027858;28;20047;-81
2024/01/16 05:46:16;;;;;;;6.47;3.13;;;;;;;;;;5029450;28;20029;-83
2024/01/16 05:48:41;;;;;;;7.43;3.17;;;;;;;;;;5029268;28;20070;-83
2024/01/16 05:51:07;;;;;;;6.72;3.15;;;;;;;;;;5012702;28;20033;-82
2024/01/16 05:53:32;;;;;;;5.40;3.15;;;;;;;;;;5018802;28;20041;-83
2024/01/16 05:55:58;;;;;;;8.63;3.42;;;;;;;;;;5030994;28;20021;-83
2024/01/16 05:58:23;;;;;;;8.73;3.45;;;;;;;;;;5031176;28;20033;-84
2024/01/16 06:00:50;;;;;;;10.77;3.40;;;;;;;;;;5027926;28;20048;-84
2024/01/16 06:03:15;;;;;;;10.93;3.28;;;;;;;;;;5024480;28;20076;-83
2024/01/16 06:05:41;;;;;;;9.27;3.78;;;;;;;;;;5006781;28;20120;-84
2024/01/16 06:08:06;;;;;;;6.65;3.90;;;;;;;;;;5028590;28;20032;-83
2024/01/16 06:10:32;;;;;;;9.20;4.68;;;;;;;;;;5031497;28;20028;-83
2024/01/16 06:12:57;;;;;;;9.43;4.43;;;;;;;;;;5006394;28;20486;-83
2024/01/16 06:15:23;;;;;;;7.80;3.90;;;;;;;;;;5022335;28;20025;-83
2024/01/16 06:17:48;;;;;;;7.50;3.58;;;;;;;;;;5026447;28;20029;-83
2024/01/16 06:20:15;;;;;;;5.80;3.33;;;;;;;;;;5006971;28;20125;-83
2024/01/16 06:22:41;;;;;;;7.00;3.42;;;;;;;;;;5030375;28;20329;-83
2024/01/16 06:25:06;;;;;;;9.40;3.90;;;;;;;;;;5030893;28;20120;-83
2024/01/16 06:27:32;;;;;;;8.55;3.72;;;;;;;;;;5030327;28;20022;-83
2024/01/16 06:29:58;;;;;;;9.35;4.10;;;;;;;;;;5015615;28;20405;-83
2024/01/16 06:32:23;;;;;;;8.27;3.65;;;;;;;;;;5008458;28;20104;-82
2024/01/16 06:34:49;;;;;;;8.13;3.95;;;;;;;;;;5029185;28;20454;-82
2024/01/16 06:37:14;;;;;;;10.90;4.28;;;;;;;;;;5029322;28;20041;-82
2024/01/16 06:39:40;;;;;;;7.47;4.32;;;;;;;;;;5029476;28;20120;-82
2024/01/16 06:42:05;;;;;;;8.68;4.72;;;;;;;;;;5033433;28;20143;-82
2024/01/16 06:44:31;;;;;;;10.35;4.90;;;;;;;;;;5029291;28;20115;-82
2024/01/16 06:46:56;;;;;;;11.15;4.55;;;;;;;;;;5028181;28;20599;-82
2024/01/16 06:49:22;;;;;;;7.55;4.97;;;;;;;;;;5025601;28;20029;-83
2024/01/16 06:51:47;;;;;;;8.60;4.80;;;;;;;;;;5027041;28;20033;-83
2024/01/16 06:54:12;;;;;;;10.77;5.60;;;;;;;;;;5010321;28;20022;-83
2024/01/16 06:56:38;;;;;;;9.25;5.35;;;;;;;;;;5031918;28;20025;-82
2024/01/16 06:59:03;;;;;;;9.30;5.38;;;;;;;;;;5011203;28;20029;-82
2024/01/16 07:01:29;;;;;;;12.18;5.85;;;;;;;;;;5013877;28;20091;-83
2024/01/16 07:03:54;;;;;;;10.70;5.53;;;;;;;;;;5041040;28;20021;-82
2024/01/16 07:06:20;;;;;;;8.45;5.55;;;;;;;;;;5029581;28;20466;-82
2024/01/16 07:08:45;;;;;;;10.95;6.07;;;;;;;;;;5033161;28;20029;-83
2024/01/16 07:11:13;;;;;;;11.82;5.68;;;;;;;;;;5032298;28;20037;-83
2024/01/16 07:13:39;;;;;;;9.05;5.15;;;;;;;;;;5016689;28;20032;-83
2024/01/16 07:16:05;;;;;;;9.50;6.43;;;;;;;;;;5033579;28;20521;-82
2024/01/16 07:18:30;;;;;;;10.63;5.97;;;;;;;;;;5033159;28;20108;-83
2024/01/16 07:20:56;;;;;;;10.00;5.60;;;;;;;;;;5032191;28;20099;-82
2024/01/16 07:23:21;;;;;;;10.70;5.57;;;;;;;;;;5032430;28;20031;-81
2024/01/16 07:25:47;;;;;;;9.50;5.80;;;;;;;;;;5030491;28;20048;-81
2024/01/16 07:28:12;;;;;;;9.85;5.65;;;;;;;;;;5030473;28;20025;-79
2024/01/16 07:30:38;;;;;;;8.95;5.57;;;;;;;;;;5033290;28;20429;-79
2024/01/16 07:33:04;;;;;;;10.02;5.75;;;;;;;;;;5044480;28;20033;-79
2024/01/16 07:35:29;;;;;;;11.43;5.45;;;;;;;;;;5013748;28;20477;-79
2024/01/16 07:37:54;;;;;;;10.43;5.13;;;;;;;;;;5030693;28;20399;-79
2024/01/16 07:40:20;;;;;;;12.85;5.40;;;;;;;;;;5014204;28;20498;-80
2024/01/16 07:42:46;;;;;;;14.02;5.07;;;;;;;;;;5016452;28;20499;-79
2024/01/16 07:45:11;;;;;;;8.18;4.95;;;;;;;;;;5013751;28;20391;-81
2024/01/16 07:47:37;;;;;;;9.20;5.00;;;;;;;;;;5033295;28;20029;-80
2024/01/16 07:50:03;;;;;;;13.68;5.28;;;;;;;;;;5033837;28;20467;-80
2024/01/16 07:52:30;;;;;;;9.60;4.97;;;;;;;;;;5033740;28;20087;-81
2024/01/16 07:54:55;;;;;;;10.18;5.30;;;;;;;;;;5034483;28;20031;-81
2024/01/16 07:57:21;;;;;;;10.65;4.78;;;;;;;;;;5032719;28;20029;-81
2024/01/16 07:59:47;;;;;;;9.25;4.68;;;;;;;;;;5032921;28;20531;-80
2024/01/16 08:02:12;;;;;;;11.50;5.13;;;;;;;;;;5032769;28;20456;-81
2024/01/16 08:04:38;;;;;;;9.88;5.15;;;;;;;;;;5034129;28;20495;-80
2024/01/16 08:07:03;;;;;;;7.22;4.50;;;;;;;;;;5034161;28;20033;-80
2024/01/16 08:09:30;;;;;;;11.55;4.95;;;;;;;;;;5043515;28;20053;-80
2024/01/16 08:11:56;;;;;;;11.65;4.68;;;;;;;;;;5035368;28;20033;-81
2024/01/16 08:14:21;;;;;;;9.23;4.47;;;;;;;;;;5023237;28;20088;-80
2024/01/16 08:16:48;;;;;;;7.75;4.25;;;;;;;;;;5029011;28;20060;-80
2024/01/16 08:19:14;;;;;;;11.70;4.68;;;;;;;;;;5029161;28;20030;-80
2024/01/16 08:21:39;;;;;;;6.68;4.18;;;;;;;;;;5033684;28;20036;-80
2024/01/16 08:24:05;;;;;;;9.40;4.35;;;;;;;;;;5035490;28;20032;-80
2024/01/16 08:26:31;;;;;;;9.55;4.25;;;;;;;;;;5036439;28;20036;-80
2024/01/16 08:28:56;;;;;;;8.55;4.45;;;;;;;;;;5029201;28;20017;-80
2024/01/16 08:31:21;;;;;;;8.60;4.13;;;;;;;;;;5031012;28;20125;-80
2024/01/16 08:33:47;;;;;;;8.73;4.63;;;;;;;;;;5035839;28;20104;-80
2024/01/16 08:36:13;;;;;;;8.50;4.35;;;;;;;;;;5029682;28;20108;-80
2024/01/16 08:38:39;;;;;;;7.30;4.13;;;;;;;;;;5029880;28;20060;-82
2024/01/16 08:41:06;;;;;;;10.30;4.47;;;;;;;;;;5016194;28;20053;-83
2024/01/16 08:43:35;;;;;;;7.63;4.45;;;;;;;;;;5035355;28;20045;-82
2024/01/16 08:46:01;;;;;;;14.20;4.65;;;;;;;;;;5032673;28;20041;-82
2024/01/16 08:48:26;;;;;;;9.93;4.35;;;;;;;;;;5031980;28;20116;-83
2024/01/16 08:50:54;;;;;;;10.48;4.63;;;;;;;;;;5029589;28;20368;-81
2024/01/16 08:53:19;;;;;;;7.13;4.05;;;;;;;;;;5031061;28;20057;-82
2024/01/16 08:55:45;;;;;;;9.45;4.28;;;;;;;;;;5027537;28;20104;-83
2024/01/16 08:58:11;;;;;;;8.60;3.92;;;;;;;;;;5014822;28;20129;-82
2024/01/16 09:00:37;;;;;;;7.13;3.97;;;;;;;;;;5031427;28;20108;-82
2024/01/16 09:03:04;;;;;;;7.18;4.18;;;;;;;;;;5032110;28;20030;-82
2024/01/16 09:05:29;;;;;;;8.48;4.32;;;;;;;;;;5033000;28;20025;-82
2024/01/16 09:07:56;;;;;;;9.13;4.00;;;;;;;;;;5035887;28;20083;-83
2024/01/16 09:10:21;;;;;;;10.70;4.25;;;;;;;;;;5027012;28;20356;-82
2024/01/16 09:12:48;;;;;;;7.78;3.80;;;;;;;;;;5023047;28;20561;-82
2024/01/16 09:15:13;;;;;;;10.50;3.83;;;;;;;;;;5038070;28;20021;-82
2024/01/16 09:17:39;;;;;;;12.38;4.40;;;;;;;;;;5031753;28;20091;-82
2024/01/16 09:20:06;;;;;;;8.13;4.13;;;;;;;;;;5027276;28;20422;-82
2024/01/16 09:22:32;;;;;;;8.13;3.97;;;;;;;;;;5030304;28;20061;-82
2024/01/16 09:24:57;;;;;;;7.50;3.80;;;;;;;;;;5034491;28;20087;-82
2024/01/16 09:27:23;;;;;;;10.25;4.15;;;;;;;;;;5026736;28;20550;-82
2024/01/16 09:29:51;;;;;;;10.23;4.40;;;;;;;;;;5030084;28;20032;-82
2024/01/16 09:32:16;;;;;;;7.25;4.00;;;;;;;;;;5019233;28;20112;-82
2024/01/16 09:34:41;;;;;;;9.55;4.20;;;;;;;;;;5030627;28;20108;-84
2024/01/16 09:37:07;;;;;;;8.40;4.03;;;;;;;;;;5038753;28;20112;-84
2024/01/16 09:39:34;;;;;;;7.75;3.42;;;;;;;;;;5031855;28;20025;-83
2024/01/16 09:42:03;;;;;;;9.00;3.47;;;;;;;;;;5032293;28;20501;-84
2024/01/16 09:44:28;;;;;;;9.95;3.72;;;;;;;;;;5028941;28;20124;-84
2024/01/16 09:46:55;;;;;;;6.57;3.65;;;;;;;;;;5029990;28;20466;-84
2024/01/16 09:49:21;;;;;;;8.40;4.03;;;;;;;;;;5031848;28;20064;-84
2024/01/16 09:51:46;;;;;;;7.72;3.35;;;;;;;;;;5034745;28;20056;-83
2024/01/16 09:54:12;;;;;;;8.45;3.95;;;;;;;;;;5031466;28;20120;-84
2024/01/16 09:56:45;;;;;;;7.18;3.70;;;;;;;;;;5035541;28;20025;-83
2024/01/16 09:59:14;;;;;;;;;;;;;;;;;;5035923;28;20029;-84
2024/01/16 10:01:42;;;;;;;5.85;3.30;;;;;;;;;;5032050;28;20398;-84
2024/01/16 10:04:08;;;;;;;7.32;3.25;;;;;;;;;;5008434;28;20021;-83
2024/01/16 10:06:34;;;;;;;6.18;3.33;;;;;;;;;;5033279;28;20074;-83
2024/01/16 10:09:00;;;;;;;8.60;4.38;;;;;;;;;;5037330;28;20033;-84
2024/01/16 10:11:25;;;;;;;8.40;3.83;;;;;;;;;;5030636;28;20032;-84
2024/01/16 10:13:51;;;;;;;8.65;3.88;;;;;;;;;;5028885;28;20503;-85
2024/01/16 10:16:16;;;;;;;8.52;3.90;;;;;;;;;;5034561;28;20029;-84
2024/01/16 10:18:43;;;;;;;7.57;3.53;;;;;;;;;;5039020;28;20037;-84
2024/01/16 10:21:21;;;;;;;6.97;3.67;;;;;;;;;;5034525;28;20483;-84
2024/01/16 10:23:47;;;;;;;7.32;3.03;;;;;;;;;;5030961;28;20041;-83
2024/01/16 10:26:13;;;;;;;11.65;3.60;;;;;;;;;;5024417;28;20029;-84
2024/01/16 10:28:41;;;;;;;6.25;3.40;;;;;;;;;;5030783;28;20121;-84
2024/01/16 10:31:08;;;;;;;8.63;3.80;;;;;;;;;;5032569;28;20040;-84
2024/01/16 10:33:34;;;;;;;8.95;3.92;;;;;;;;;;5030613;28;20044;-84
2024/01/16 10:36:16;;;;;;;8.65;3.97;;;;;;;;;;5016456;28;20108;-84
2024/01/16 10:38:43;;;;;;;9.57;4.00;;;;;;;;;;5012799;28;20553;-84
2024/01/16 10:41:13;;;;;;;6.78;3.38;;;;;;;;;;5033491;28;20028;-85
2024/01/16 10:43:39;;;;;;;8.38;3.88;;;;;;;;;;5034157;28;20021;-84
2024/01/16 10:46:15;;;;;;;7.85;3.88;;;;;;;;;;5034342;28;20537;-84
2024/01/16 10:48:57;;;;;;;8.38;4.20;;;;;;;;;;5035966;28;20033;-84
2024/01/16 10:51:23;;;;;;;6.93;3.87;;;;;;;;;;5030926;28;20479;-84
2024/01/16 10:53:50;;;;;;;8.55;3.38;;;;;;;;;;5019424;28;20024;-84
2024/01/16 10:56:17;;;;;;;9.95;4.40;;;;;;;;;;5009849;28;20040;-84
2024/01/16 10:58:43;;;;;;;8.70;4.55;;;;;;;;;;5029312;28;20368;-84
2024/01/16 11:01:12;;;;;;;7.00;4.15;;;;;;;;;;5034536;28;20040;-84
2024/01/16 11:03:49;;;;;;;8.80;3.90;;;;;;;;;;5038635;28;20079;-83
2024/01/16 11:06:18;;;;;;;8.43;3.72;;;;;;;;;;5031220;28;20079;-84
2024/01/16 11:08:48;;;;;;;5.80;3.80;;;;;;;;;;5031933;28;20470;-84
2024/01/16 11:11:14;;;;;;;9.55;4.30;;;;;;;;;;5031796;28;20083;-84
2024/01/16 11:13:43;;;;;;;9.32;4.45;;;;;;;;;;5031322;28;20037;-84
2024/01/16 11:16:11;;;;;;;8.02;4.05;;;;;;;;;;5011862;28;20048;-85
2024/01/16 11:18:37;;;;;;;9.00;4.00;;;;;;;;;;5034501;28;20038;-84
2024/01/16 11:21:21;;;;;;;6.30;4.30;;;;;;;;;;5025488;28;20535;-84
2024/01/16 11:23:47;;;;;;;9.95;4.78;;;;;;;;;;5033277;28;20483;-84
2024/01/16 11:26:32;;;;;;;8.80;4.30;;;;;;;;;;5016576;28;20037;-84
2024/01/16 11:28:59;;;;;;;8.20;4.50;;;;;;;;;;5024963;28;20606;-84
2024/01/16 11:31:34;;;;;;;8.85;4.30;;;;;;;;;;5021257;28;20125;-84
2024/01/16 11:34:01;;;;;;;8.75;4.70;;;;;;;;;;5035179;28;20064;-84
2024/01/16 11:36:45;;;;;;;12.30;5.22;;;;;;;;;;5029342;28;20064;-84
2024/01/16 11:39:17;;;;;;;6.97;4.45;;;;;;;;;;5038916;28;20025;-84
2024/01/16 11:41:52;;;;;;;9.40;4.63;;;;;;;;;;5033395;28;21195;-84
2024/01/16 11:44:43;;;;;;;6.30;4.13;;;;;;;;;;5018562;28;20037;-83
2024/01/16 11:47:14;;;;;;;7.88;4.53;;;;;;;;;;5021574;28;20108;-83
2024/01/16 11:49:40;;;;;;;9.73;4.80;;;;;;;;;;5018974;28;20079;-83
2024/01/16 11:52:06;;;;;;;10.23;5.10;;;;;;;;;;5033208;28;20030;-82
2024/01/16 11:54:33;;;;;;;11.07;4.65;;;;;;;;;;5040494;28;20044;-83
2024/01/16 11:57:12;;;;;;;11.88;5.15;;;;;;;;;;5011789;28;20479;-84
2024/01/16 11:59:59;;;;;;;14.70;6.00;;;;;;;;;;5027795;28;20447;-84
2024/01/16 12:02:49;;;;;;;11.45;5.22;;;;;;;;;;5034608;28;20490;-83
2024/01/16 12:05:14;;;;;;;8.65;4.93;;;;;;;;;;5035916;28;20029;-83
2024/01/16 12:07:50;;;;;;;11.73;5.38;;;;;;;;;;5029081;28;20037;-79
2024/01/16 12:10:17;;;;;;;9.75;5.38;;;;;;;;;;5033388;28;20042;-78
2024/01/16 12:12:43;;;;;;;13.00;5.57;;;;;;;;;;5016252;28;20048;-78
2024/01/16 12:15:20;;;;;;;9.65;5.20;;;;;;;;;;5039038;28;20487;-79
2024/01/16 12:18:05;;;;;;;9.38;5.00;;;;;;;;;;5034544;28;20025;-78
2024/01/16 12:20:33;;;;;;;10.13;5.60;;;;;;;;;;5033911;28;20164;-78
2024/01/16 12:23:06;;;;;;;11.80;5.68;;;;;;;;;;5032620;28;20017;-78
2024/01/16 12:25:33;;;;;;;;;;;;;;;;;;5034938;28;20025;-79
2024/01/16 12:28:03;;;;;;;13.27;5.82;;;;;;;;;;5033861;28;19920;-78
2024/01/16 12:30:33;;;;;;;10.90;5.72;;;;;;;;;;5033614;28;20021;-78
2024/01/16 12:33:09;;;;;;;9.48;5.18;;;;;;;;;;5032021;28;20033;-78
2024/01/16 12:35:36;;;;;;;10.35;5.07;;;;;;;;;;5029635;28;20029;-79
2024/01/16 12:38:04;;;;;;;10.35;5.57;;;;;;;;;;5028757;28;20079;-78
2024/01/16 12:40:29;;;;;;;7.70;4.80;;;;;;;;;;5029420;28;20803;-78
2024/01/16 12:42:55;;;;;;;10.50;5.18;;;;;;;;;;5032049;28;20108;-78
2024/01/16 12:45:21;;;;;;;10.60;5.03;;;;;;;;;;5032414;28;20045;-79
2024/01/16 12:47:54;;;;;;;7.25;4.68;;;;;;;;;;5031397;28;20545;-78
2024/01/16 12:50:24;;;;;;;11.63;5.00;;;;;;;;;;5027819;28;20779;-78
2024/01/16 12:52:50;;;;;;;8.75;4.47;;;;;;;;;;5041598;28;20037;-78
2024/01/16 12:55:17;;;;;;;8.48;4.38;;;;;;;;;;5035170;28;20021;-78
2024/01/16 12:57:46;;;;;;;11.65;4.53;;;;;;;;;;5035884;28;20029;-78
2024/01/16 13:00:25;;;;;;;7.57;4.28;;;;;;;;;;5030002;28;20040;-78
2024/01/16 13:02:55;;;;;;;8.85;4.70;;;;;;;;;;5010601;28;20034;-78
2024/01/16 13:05:20;;;;;;;10.02;4.45;;;;;;;;;;5017893;28;20033;-77
2024/01/16 13:08:00;;;;;;;10.75;4.53;;;;;;;;;;5037237;28;20506;-78
2024/01/16 13:10:25;;;;;;;13.18;5.20;;;;;;;;;;5033330;28;20075;-78
2024/01/16 13:12:51;;;;;;;11.25;4.88;;;;;;;;;;5032200;28;20531;-78
2024/01/16 13:15:17;;;;;;;12.80;4.40;;;;;;;;;;5022043;28;20013;-78
2024/01/16 13:17:43;;;;;;;10.25;4.35;;;;;;;;;;5034532;28;20043;-78
2024/01/16 13:20:10;;;;;;;8.63;4.35;;;;;;;;;;5040157;28;20135;-78
2024/01/16 13:22:35;;;;;;;7.15;4.03;;;;;;;;;;5031100;28;20029;-78
2024/01/16 13:25:01;;;;;;;8.43;4.07;;;;;;;;;;5028188;28;20104;-78
2024/01/16 13:27:29;;;;;;;8.85;4.28;;;;;;;;;;5031535;28;20124;-78
2024/01/16 13:29:54;;;;;;;11.57;4.60;;;;;;;;;;5032830;28;20068;-78
2024/01/16 13:32:20;;;;;;;8.43;4.30;;;;;;;;;;5036377;28;20033;-78
2024/01/16 13:34:49;;;;;;;11.95;4.88;;;;;;;;;;5022483;28;20030;-78
2024/01/16 13:37:21;;;;;;;9.68;4.22;;;;;;;;;;5030748;28;20079;-78
2024/01/16 13:39:47;;;;;;;7.38;4.28;;;;;;;;;;5030901;28;20052;-78
2024/01/16 13:42:12;;;;;;;9.10;4.00;;;;;;;;;;5014997;28;20025;-78
2024/01/16 13:44:38;;;;;;;9.88;4.18;;;;;;;;;;5033029;28;20013;-78
2024/01/16 13:47:04;;;;;;;9.48;4.25;;;;;;;;;;5031795;28;20052;-78
2024/01/16 13:49:30;;;;;;;9.13;4.32;;;;;;;;;;5031485;28;20037;-78
2024/01/16 13:51:55;;;;;;;8.25;4.18;;;;;;;;;;5033741;28;20034;-78
2024/01/16 13:54:21;;;;;;;7.65;3.90;;;;;;;;;;5030547;28;20561;-78
2024/01/16 13:56:46;;;;;;;5.88;3.70;;;;;;;;;;5020155;28;20025;-77
2024/01/16 13:59:12;;;;;;;11.20;3.90;;;;;;;;;;5027690;28;20030;-78
2024/01/16 14:01:37;;;;;;;7.57;4.13;;;;;;;;;;5037651;28;20017;-78
2024/01/16 14:04:06;;;;;;;7.75;4.10;;;;;;;;;;5032182;28;20425;-78
2024/01/16 14:06:33;;;;;;;5.80;3.85;;;;;;;;;;5031429;28;20095;-79
2024/01/16 14:08:58;;;;;;;7.60;4.22;;;;;;;;;;5024867;28;20013;-78
2024/01/16 14:11:23;;;;;;;5.30;3.47;;;;;;;;;;5032348;28;20404;-78
2024/01/16 14:13:49;;;;;;;7.13;3.65;;;;;;;;;;5031529;28;20031;-78
2024/01/16 14:16:15;;;;;;;6.68;3.65;;;;;;;;;;5034197;28;20482;-78
2024/01/16 14:18:41;;;;;;;8.35;4.00;;;;;;;;;;5018597;28;20039;-78
2024/01/16 14:21:06;;;;;;;7.50;3.92;;;;;;;;;;5035900;28;20033;-78
2024/01/16 14:23:33;;;;;;;10.15;4.25;;;;;;;;;;5036070;28;20038;-78
2024/01/16 14:25:59;;;;;;;11.40;4.88;;;;;;;;;;5029997;28;20087;-78
2024/01/16 14:28:27;;;;;;;11.00;4.90;;;;;;;;;;5032369;28;20022;-78
2024/01/16 14:30:52;;;;;;;7.60;3.80;;;;;;;;;;5030961;28;20048;-78
2024/01/16 14:33:18;;;;;;;7.70;3.38;;;;;;;;;;5017651;28;20088;-78
2024/01/16 14:35:44;;;;;;;12.27;3.72;;;;;;;;;;5031249;28;20029;-78
2024/01/16 14:38:09;;;;;;;7.38;3.92;;;;;;;;;;5030170;28;20039;-78
2024/01/16 14:40:35;;;;;;;6.72;3.33;;;;;;;;;;5035716;28;20120;-78
2024/01/16 14:43:03;;;;;;;8.57;3.25;;;;;;;;;;5029771;28;20024;-78
2024/01/16 14:45:31;;;;;;;6.78;3.22;;;;;;;;;;5029675;28;20064;-78